createdAt,value
2023-05-18T00:00:03.092Z,4.40
2023-05-18T00:02:31.879Z,4.03
2023-05-18T00:05:02.230Z,4.27
2023-05-18T00:07:34.090Z,4.60
2023-05-18T00:10:01.939Z,4.40
2023-05-18T00:12:29.284Z,4.53
2023-05-18T00:14:56.586Z,4.60
2023-05-18T00:17:23.723Z,4.47
2023-05-18T00:19:50.811Z,4.23
2023-05-18T00:22:20.647Z,5.00
2023-05-18T00:24:48.450Z,5.10
2023-05-18T00:27:15.633Z,4.80
2023-05-18T00:29:42.559Z,4.90
2023-05-18T00:32:09.570Z,4.70
2023-05-18T00:34:37.523Z,4.83
2023-05-18T00:37:04.639Z,5.10
2023-05-18T00:39:31.579Z,5.47
2023-05-18T00:41:58.570Z,5.00
2023-05-18T00:44:25.653Z,5.23
2023-05-18T00:46:52.711Z,4.83
2023-05-18T00:49:19.996Z,4.33
2023-05-18T00:51:47.378Z,4.77
2023-05-18T00:54:15.650Z,4.67
2023-05-18T00:56:46.338Z,4.60
2023-05-18T00:59:13.572Z,4.90
2023-05-18T01:01:47.005Z,5.00
2023-05-18T01:04:14.563Z,4.87
2023-05-18T01:06:42.558Z,4.57
2023-05-18T01:09:12.097Z,5.00
2023-05-18T01:11:48.364Z,4.83
2023-05-18T01:14:36.581Z,4.30
2023-05-18T01:17:47.462Z,4.60
2023-05-18T01:20:26.683Z,4.73
2023-05-18T01:23:05.578Z,5.03
2023-05-18T01:25:44.388Z,4.73
2023-05-18T01:28:16.313Z,5.20
2023-05-18T01:30:43.597Z,5.43
2023-05-18T01:33:13.987Z,5.30
2023-05-18T01:35:49.929Z,4.93
2023-05-18T01:38:20.729Z,4.40
2023-05-18T01:40:59.169Z,4.83
2023-05-18T01:43:33.947Z,4.90
2023-05-18T01:46:34.274Z,4.40
2023-05-18T01:49:10.006Z,4.93
2023-05-18T01:51:41.689Z,4.93
2023-05-18T01:54:11.480Z,4.77
2023-05-18T01:56:40.408Z,4.67
2023-05-18T01:59:07.847Z,4.60
2023-05-18T02:01:34.773Z,5.07
2023-05-18T02:04:01.763Z,4.90
2023-05-18T02:06:31.084Z,4.60
2023-05-18T02:08:57.909Z,4.63
2023-05-18T02:11:24.765Z,4.90
2023-05-18T02:13:51.671Z,4.93
2023-05-18T02:16:19.987Z,4.20
2023-05-18T02:18:47.053Z,4.60
2023-05-18T02:21:14.520Z,5.10
2023-05-18T02:23:41.716Z,4.50
2023-05-18T02:26:08.546Z,4.37
2023-05-18T02:28:35.905Z,4.27
2023-05-18T02:31:14.526Z,4.80
2023-05-18T02:33:41.584Z,4.37
2023-05-18T02:36:13.610Z,4.53
2023-05-18T02:38:43.513Z,4.40
2023-05-18T02:41:12.074Z,4.13
2023-05-18T02:43:38.998Z,3.93
2023-05-18T02:46:07.518Z,4.57
2023-05-18T02:48:34.559Z,4.13
2023-05-18T02:51:01.365Z,5.00
2023-05-18T02:53:28.188Z,4.33
2023-05-18T02:56:03.892Z,4.43
2023-05-18T02:58:40.655Z,4.47
2023-05-18T03:01:14.529Z,4.37
2023-05-18T03:03:48.108Z,4.63
2023-05-18T03:06:16.073Z,4.73
2023-05-18T03:08:43.974Z,4.30
2023-05-18T03:11:12.537Z,4.20
2023-05-18T03:13:39.366Z,4.37
2023-05-18T03:16:06.463Z,4.73
2023-05-18T03:18:33.445Z,4.30
2023-05-18T03:21:02.153Z,4.37
2023-05-18T03:23:30.260Z,5.20
2023-05-18T03:25:57.476Z,5.03
2023-05-18T03:28:30.021Z,4.60
2023-05-18T03:30:58.080Z,4.70
2023-05-18T03:33:26.985Z,4.40
2023-05-18T03:35:54.618Z,5.20
2023-05-18T03:38:21.721Z,4.80
2023-05-18T03:40:56.266Z,5.33
2023-05-18T03:43:25.876Z,5.17
2023-05-18T03:45:53.787Z,5.33
2023-05-18T03:48:21.738Z,4.87
2023-05-18T03:50:48.857Z,5.10
2023-05-18T03:53:19.201Z,4.73
2023-05-18T03:55:46.569Z,5.13
2023-05-18T03:58:13.719Z,4.30
2023-05-18T04:00:40.743Z,4.70
2023-05-18T04:03:07.651Z,4.57
2023-05-18T04:05:35.637Z,4.73
2023-05-18T04:08:02.467Z,4.23
2023-05-18T04:10:30.429Z,4.70
2023-05-18T04:12:57.471Z,4.33
2023-05-18T04:15:24.374Z,4.47
2023-05-18T04:17:51.812Z,4.37
2023-05-18T04:20:19.296Z,4.77
2023-05-18T04:22:49.118Z,4.90
2023-05-18T04:25:18.699Z,4.90
2023-05-18T04:27:45.824Z,4.47
2023-05-18T04:30:13.292Z,4.50
2023-05-18T04:32:43.232Z,4.50
2023-05-18T04:35:11.668Z,4.67
2023-05-18T04:37:40.487Z,4.70
2023-05-18T04:40:13.848Z,4.20
2023-05-18T04:42:47.936Z,5.10
2023-05-18T04:45:20.484Z,4.47
2023-05-18T04:47:54.230Z,4.83
2023-05-18T04:50:26.332Z,4.70
2023-05-18T04:52:53.986Z,4.20
2023-05-18T04:55:29.012Z,4.50
2023-05-18T04:58:03.222Z,4.20
2023-05-18T05:00:30.592Z,4.40
2023-05-18T05:02:58.605Z,4.27
2023-05-18T05:05:26.814Z,4.70
2023-05-18T05:07:54.720Z,4.70
2023-05-18T05:10:22.329Z,4.90
2023-05-18T05:12:52.745Z,4.40
2023-05-18T05:15:20.723Z,4.93
2023-05-18T05:17:49.820Z,4.53
2023-05-18T05:20:17.719Z,4.57
2023-05-18T05:22:44.774Z,4.50
2023-05-18T05:25:14.435Z,4.27
2023-05-18T05:27:41.995Z,4.40
2023-05-18T05:30:09.641Z,4.60
2023-05-18T05:32:37.813Z,4.40
2023-05-18T05:35:07.323Z,4.03
2023-05-18T05:37:35.927Z,4.50
2023-05-18T05:40:06.164Z,4.80
2023-05-18T05:42:37.244Z,4.40
2023-05-18T05:45:04.708Z,4.83
2023-05-18T05:47:34.934Z,4.73
2023-05-18T05:50:01.882Z,4.47
2023-05-18T05:52:29.817Z,4.70
2023-05-18T05:54:57.065Z,4.10
2023-05-18T05:57:24.948Z,4.10
2023-05-18T05:59:52.049Z,3.83
2023-05-18T06:02:19.201Z,3.73
2023-05-18T06:04:46.132Z,3.90
2023-05-18T06:07:13.054Z,4.30
2023-05-18T06:09:40.960Z,3.97
2023-05-18T06:12:08.815Z,3.90
2023-05-18T06:14:36.294Z,4.10
2023-05-18T06:17:03.831Z,3.93
2023-05-18T06:19:31.091Z,4.17
2023-05-18T06:21:58.062Z,4.00
2023-05-18T06:24:27.063Z,4.20
2023-05-18T06:27:17.213Z,3.93
2023-05-18T06:29:55.056Z,3.97
2023-05-18T06:32:48.430Z,3.97
2023-05-18T06:35:16.027Z,4.30
2023-05-18T06:37:44.194Z,4.33
2023-05-18T06:40:12.394Z,4.70
2023-05-18T06:42:39.396Z,4.00
2023-05-18T06:45:24.724Z,3.93
2023-05-18T06:47:54.636Z,4.57
2023-05-18T06:50:22.085Z,3.83
2023-05-18T06:52:49.097Z,4.63
2023-05-18T06:55:16.232Z,4.03
2023-05-18T06:57:43.222Z,3.87
2023-05-18T07:00:12.506Z,4.00
2023-05-18T07:02:40.003Z,4.30
2023-05-18T07:05:09.209Z,4.50
2023-05-18T07:07:39.420Z,4.30
2023-05-18T07:10:07.051Z,4.07
2023-05-18T07:12:34.043Z,4.07
2023-05-18T07:15:01.035Z,4.67
2023-05-18T07:17:28.180Z,4.43
2023-05-18T07:19:55.139Z,3.57
2023-05-18T07:22:22.075Z,4.23
2023-05-18T07:24:49.079Z,4.13
2023-05-18T07:27:16.054Z,4.27
2023-05-18T07:29:43.211Z,4.80
2023-05-18T07:32:10.166Z,4.03
2023-05-18T07:34:37.527Z,4.47
2023-05-18T07:37:05.212Z,4.17
2023-05-18T07:39:32.208Z,4.47
2023-05-18T07:41:59.246Z,4.20
2023-05-18T07:44:26.173Z,3.77
2023-05-18T07:46:53.287Z,4.83
2023-05-18T07:49:23.490Z,5.10
2023-05-18T07:51:52.926Z,4.23
2023-05-18T07:54:20.488Z,4.13
2023-05-18T07:56:48.083Z,3.60
2023-05-18T07:59:16.178Z,4.70
2023-05-18T08:01:45.151Z,4.10
2023-05-18T08:04:12.253Z,4.53
2023-05-18T08:06:39.284Z,4.60
2023-05-18T08:09:07.046Z,4.07
2023-05-18T08:11:34.227Z,4.77
2023-05-18T08:14:01.208Z,4.53
2023-05-18T08:16:29.293Z,4.83
2023-05-18T08:18:56.255Z,4.60
2023-05-18T08:21:23.219Z,4.47
2023-05-18T08:23:50.105Z,4.43
2023-05-18T08:26:17.168Z,4.10
2023-05-18T08:28:45.338Z,4.70
2023-05-18T08:31:12.466Z,4.27
2023-05-18T08:33:39.630Z,4.27
2023-05-18T08:36:06.994Z,4.87
2023-05-18T08:38:33.934Z,4.93
2023-05-18T08:41:15.184Z,4.07
2023-05-18T08:43:45.874Z,4.47
2023-05-18T08:46:26.446Z,4.30
2023-05-18T08:48:54.954Z,3.97
2023-05-18T08:51:22.800Z,4.57
2023-05-18T08:53:53.895Z,4.03
2023-05-18T08:56:23.475Z,4.80
2023-05-18T08:58:54.594Z,4.37
2023-05-18T09:01:23.604Z,4.63
2023-05-18T09:03:51.072Z,4.10
2023-05-18T09:06:19.333Z,5.10
2023-05-18T09:08:46.832Z,4.13
2023-05-18T09:11:14.326Z,4.13
2023-05-18T09:13:41.400Z,3.77
2023-05-18T09:16:08.678Z,4.50
2023-05-18T09:18:35.842Z,4.20
2023-05-18T09:21:02.852Z,4.20
2023-05-18T09:23:30.684Z,3.93
2023-05-18T09:25:59.387Z,4.40
2023-05-18T09:28:49.434Z,4.23
2023-05-18T09:31:21.069Z,4.07
2023-05-18T09:33:50.416Z,4.23
2023-05-18T09:36:18.189Z,3.80
2023-05-18T09:38:46.903Z,4.77
2023-05-18T09:41:17.934Z,4.40
2023-05-18T09:43:46.442Z,4.10
2023-05-18T09:46:13.834Z,4.07
2023-05-18T09:48:51.583Z,3.97
2023-05-18T09:51:21.884Z,4.93
2023-05-18T09:53:57.227Z,4.07
2023-05-18T09:56:25.899Z,4.57
2023-05-18T09:58:53.861Z,4.17
2023-05-18T10:01:20.907Z,4.13
2023-05-18T10:03:49.859Z,4.30
2023-05-18T10:06:21.424Z,4.33
2023-05-18T10:08:48.797Z,4.87
2023-05-18T10:11:21.993Z,4.47
2023-05-18T10:13:54.976Z,3.93
2023-05-18T10:16:24.266Z,3.90
2023-05-18T10:18:54.613Z,4.80
2023-05-18T10:21:24.540Z,4.20
2023-05-18T10:23:52.332Z,4.30
2023-05-18T10:26:24.102Z,4.33
2023-05-18T10:28:53.242Z,4.50
2023-05-18T10:31:21.680Z,4.00
2023-05-18T10:33:50.805Z,4.67
2023-05-18T10:36:18.407Z,4.43
2023-05-18T10:38:46.934Z,4.07
2023-05-18T10:41:14.672Z,4.20
2023-05-18T10:43:44.038Z,3.80
2023-05-18T10:46:12.244Z,3.63
2023-05-18T10:48:40.863Z,3.87
2023-05-18T10:51:08.458Z,3.87
2023-05-18T10:53:37.068Z,3.43
2023-05-18T10:56:04.209Z,3.57
2023-05-18T10:58:32.072Z,4.00
2023-05-18T11:01:06.308Z,3.67
2023-05-18T11:03:33.788Z,3.70
2023-05-18T11:06:08.314Z,3.70
2023-05-18T11:08:42.459Z,3.40
2023-05-18T11:11:09.580Z,3.37
2023-05-18T11:13:38.708Z,4.03
2023-05-18T11:16:07.147Z,3.50
2023-05-18T11:18:39.886Z,3.33
2023-05-18T11:21:32.563Z,3.33
2023-05-18T11:24:16.362Z,3.20
2023-05-18T11:27:06.946Z,2.93
2023-05-18T11:29:42.246Z,3.50
2023-05-18T11:32:30.219Z,3.57
2023-05-18T11:34:57.900Z,3.20
2023-05-18T11:37:40.053Z,3.03
2023-05-18T11:40:11.768Z,3.57
2023-05-18T11:42:39.540Z,3.57
2023-05-18T11:45:12.003Z,3.63
2023-05-18T11:47:41.135Z,3.10
2023-05-18T11:50:10.470Z,3.00
2023-05-18T11:52:52.574Z,3.00
2023-05-18T11:55:20.973Z,3.50
2023-05-18T11:57:52.238Z,3.30
2023-05-18T12:00:20.527Z,4.00
2023-05-18T12:02:48.821Z,3.00
2023-05-18T12:05:16.403Z,2.90
2023-05-18T12:07:45.000Z,2.73
2023-05-18T12:10:17.137Z,2.80
2023-05-18T12:12:47.563Z,3.10
2023-05-18T12:15:16.979Z,3.43
2023-05-18T12:17:50.570Z,3.20
2023-05-18T12:20:31.316Z,2.93
2023-05-18T12:22:58.579Z,3.67
2023-05-18T12:25:28.006Z,3.43
2023-05-18T12:27:56.890Z,3.20
2023-05-18T12:30:35.902Z,2.93
2023-05-18T12:33:03.869Z,3.10
2023-05-18T12:35:31.796Z,3.10
2023-05-18T12:38:00.602Z,2.87
2023-05-18T12:40:34.268Z,2.87
2023-05-18T12:43:03.123Z,3.00
2023-05-18T12:45:32.610Z,3.10
2023-05-18T12:48:07.305Z,2.70
2023-05-18T12:50:36.407Z,3.00
2023-05-18T12:53:03.262Z,2.90
2023-05-18T12:55:31.895Z,3.03
2023-05-18T12:58:08.088Z,3.10
2023-05-18T13:00:39.273Z,3.43
2023-05-18T13:03:13.753Z,2.80
2023-05-18T13:05:44.857Z,3.40
2023-05-18T13:08:19.979Z,3.00
2023-05-18T13:10:53.000Z,2.70
2023-05-18T13:13:22.417Z,3.07
2023-05-18T13:15:51.425Z,3.37
2023-05-18T13:18:18.236Z,2.90
2023-05-18T13:20:52.963Z,3.27
2023-05-18T13:23:22.091Z,2.87
2023-05-18T13:25:49.884Z,2.90
2023-05-18T13:28:20.978Z,3.20
2023-05-18T13:30:50.372Z,2.87
2023-05-18T13:33:19.142Z,2.70
2023-05-18T13:35:48.562Z,2.93
2023-05-18T13:38:15.882Z,3.20
2023-05-18T13:40:42.959Z,2.90
2023-05-18T13:43:12.081Z,2.70
2023-05-18T13:45:41.153Z,2.83
2023-05-18T13:48:10.698Z,2.80
2023-05-18T13:50:38.991Z,3.13
2023-05-18T13:53:06.774Z,2.73
2023-05-18T13:55:34.395Z,2.73
2023-05-18T13:58:01.447Z,2.90
2023-05-18T14:00:28.678Z,2.70
2023-05-18T14:02:56.632Z,3.23
2023-05-18T14:05:23.917Z,3.10
2023-05-18T14:07:52.583Z,2.73
2023-05-18T14:10:20.512Z,3.27
2023-05-18T14:12:47.637Z,2.80
2023-05-18T14:15:14.924Z,3.50
2023-05-18T14:17:45.472Z,3.53
2023-05-18T14:20:12.807Z,3.10
2023-05-18T14:22:40.103Z,2.80
2023-05-18T14:25:07.268Z,3.20
2023-05-18T14:27:34.301Z,2.67
2023-05-18T14:30:01.478Z,2.87
2023-05-18T14:32:28.582Z,2.93
2023-05-18T14:34:58.115Z,2.67
2023-05-18T14:37:25.721Z,2.87
2023-05-18T14:39:52.719Z,2.80
2023-05-18T14:42:19.586Z,3.00
2023-05-18T14:44:47.109Z,2.70
2023-05-18T14:47:14.021Z,2.77
2023-05-18T14:49:41.036Z,2.60
2023-05-18T14:52:07.897Z,2.77
2023-05-18T14:54:35.034Z,2.93
2023-05-18T14:57:01.955Z,3.10
2023-05-18T14:59:28.992Z,3.00
2023-05-18T15:01:56.040Z,2.57
2023-05-18T15:04:23.682Z,2.90
2023-05-18T15:06:51.060Z,2.60
2023-05-18T15:09:17.999Z,2.80
2023-05-18T15:11:45.667Z,3.00
2023-05-18T15:14:12.747Z,3.20
2023-05-18T15:16:39.728Z,2.90
2023-05-18T15:19:06.799Z,2.77
2023-05-18T15:21:40.305Z,3.30
2023-05-18T15:24:07.436Z,2.90
2023-05-18T15:26:34.700Z,2.80
2023-05-18T15:29:01.555Z,2.63
2023-05-18T15:31:28.413Z,2.87
2023-05-18T15:33:55.751Z,2.77
2023-05-18T15:36:23.709Z,2.60
2023-05-18T15:38:50.583Z,3.30
2023-05-18T15:41:18.947Z,2.77
2023-05-18T15:43:46.697Z,2.80
2023-05-18T15:46:13.606Z,3.00
2023-05-18T15:48:40.437Z,3.03
2023-05-18T15:51:07.538Z,2.60
2023-05-18T15:53:34.496Z,2.77
2023-05-18T15:56:01.377Z,3.20
2023-05-18T15:58:28.447Z,2.80
2023-05-18T16:00:55.289Z,2.70
2023-05-18T16:03:22.316Z,2.80
2023-05-18T16:05:50.198Z,2.53
2023-05-18T16:08:17.083Z,2.77
2023-05-18T16:10:43.866Z,2.50
2023-05-18T16:13:10.698Z,3.03
2023-05-18T16:15:37.567Z,2.97
2023-05-18T16:18:04.740Z,2.67
2023-05-18T16:20:31.788Z,2.50
2023-05-18T16:22:59.112Z,2.77
2023-05-18T16:25:26.422Z,2.53
2023-05-18T16:27:53.265Z,2.83
2023-05-18T16:30:20.104Z,2.83
2023-05-18T16:32:46.947Z,3.13
2023-05-18T16:35:13.762Z,3.30
2023-05-18T16:37:40.906Z,3.20
2023-05-18T16:40:08.497Z,3.27
2023-05-18T16:42:35.519Z,3.03
2023-05-18T16:45:03.051Z,3.10
2023-05-18T16:47:32.650Z,3.00
2023-05-18T16:50:00.417Z,2.90
2023-05-18T16:52:27.674Z,2.97
2023-05-18T16:54:54.590Z,3.23
2023-05-18T16:57:22.171Z,3.27
2023-05-18T16:59:49.181Z,2.87
2023-05-18T17:02:17.443Z,3.60
2023-05-18T17:04:49.868Z,3.43
2023-05-18T17:07:17.354Z,3.17
2023-05-18T17:09:44.539Z,3.07
2023-05-18T17:12:12.007Z,3.00
2023-05-18T17:14:39.321Z,3.20
2023-05-18T17:17:07.189Z,2.90
2023-05-18T17:19:39.371Z,2.80
2023-05-18T17:22:06.352Z,3.20
2023-05-18T17:24:33.295Z,3.40
2023-05-18T17:27:00.217Z,2.70
2023-05-18T17:29:27.502Z,3.20
2023-05-18T17:31:54.769Z,2.80
2023-05-18T17:34:22.243Z,2.83
2023-05-18T17:36:49.616Z,3.07
2023-05-18T17:39:16.705Z,3.47
2023-05-18T17:41:44.488Z,2.77
2023-05-18T17:44:16.261Z,3.53
2023-05-18T17:46:45.832Z,2.77
2023-05-18T17:49:14.207Z,3.30
2023-05-18T17:51:41.532Z,3.03
2023-05-18T17:54:08.462Z,2.90
2023-05-18T17:56:35.936Z,3.27
2023-05-18T17:59:03.601Z,3.23
2023-05-18T18:01:30.883Z,3.13
2023-05-18T18:03:58.234Z,3.40
2023-05-18T18:06:26.039Z,3.27
2023-05-18T18:08:54.115Z,3.07
2023-05-18T18:11:22.025Z,3.00
2023-05-18T18:13:49.731Z,3.10
2023-05-18T18:16:18.015Z,3.40
2023-05-18T18:18:45.279Z,3.20
2023-05-18T18:21:12.431Z,3.50
2023-05-18T18:23:40.145Z,3.60
2023-05-18T18:26:08.525Z,3.27
2023-05-18T18:28:35.842Z,2.90
2023-05-18T18:31:03.516Z,3.37
2023-05-18T18:33:30.589Z,3.30
2023-05-18T18:35:58.975Z,3.50
2023-05-18T18:38:29.015Z,3.00
2023-05-18T18:41:01.749Z,3.77
2023-05-18T18:43:29.181Z,3.10
2023-05-18T18:45:59.494Z,3.70
2023-05-18T18:48:26.974Z,3.47
2023-05-18T18:50:53.870Z,3.60
2023-05-18T18:53:20.910Z,3.10
2023-05-18T18:55:48.345Z,3.60
2023-05-18T18:58:15.736Z,3.67
2023-05-18T19:00:42.741Z,3.37
2023-05-18T19:03:10.063Z,3.43
2023-05-18T19:05:38.397Z,3.47
2023-05-18T19:08:05.774Z,3.53
2023-05-18T19:10:34.392Z,3.83
2023-05-18T19:13:05.644Z,3.50
2023-05-18T19:15:34.630Z,3.30
2023-05-18T19:18:02.325Z,3.27
2023-05-18T19:20:29.447Z,3.43
2023-05-18T19:22:56.367Z,3.47
2023-05-18T19:25:26.455Z,3.10
2023-05-18T19:27:53.973Z,3.50
2023-05-18T19:30:22.195Z,3.20
2023-05-18T19:32:53.191Z,3.23
2023-05-18T19:35:21.041Z,3.00
2023-05-18T19:37:48.329Z,3.27
2023-05-18T19:40:16.309Z,3.13
2023-05-18T19:42:43.297Z,3.40
2023-05-18T19:45:10.248Z,3.00
2023-05-18T19:47:37.269Z,3.00
2023-05-18T19:50:04.660Z,3.13
2023-05-18T19:52:33.440Z,3.23
2023-05-18T19:55:00.609Z,3.47
2023-05-18T19:57:27.718Z,3.30
2023-05-18T19:59:54.699Z,3.50
2023-05-18T20:02:21.596Z,3.17
2023-05-18T20:04:48.625Z,2.73
2023-05-18T20:07:17.077Z,3.10
2023-05-18T20:09:43.967Z,3.10
2023-05-18T20:12:11.165Z,3.40
2023-05-18T20:14:38.969Z,3.10
2023-05-18T20:17:06.480Z,3.00
2023-05-18T20:19:33.419Z,3.10
2023-05-18T20:22:00.598Z,3.10
2023-05-18T20:24:27.586Z,3.50
2023-05-18T20:26:54.514Z,3.63
2023-05-18T20:29:21.436Z,3.50
2023-05-18T20:31:48.507Z,3.37
2023-05-18T20:34:15.601Z,3.53
2023-05-18T20:36:42.512Z,3.57
2023-05-18T20:39:09.466Z,3.17
2023-05-18T20:41:40.113Z,3.13
2023-05-18T20:44:10.525Z,3.43
2023-05-18T20:46:42.513Z,3.73
2023-05-18T20:49:12.940Z,3.40
2023-05-18T20:51:39.943Z,3.70
2023-05-18T20:54:06.874Z,3.70
2023-05-18T20:56:35.726Z,3.10
2023-05-18T20:59:04.175Z,3.40
2023-05-18T21:01:39.106Z,3.63
2023-05-18T21:04:06.548Z,3.80
2023-05-18T21:06:34.462Z,3.40
2023-05-18T21:09:01.703Z,3.83
2023-05-18T21:11:28.550Z,3.30
2023-05-18T21:13:55.504Z,3.70
2023-05-18T21:16:22.395Z,3.37
2023-05-18T21:18:49.721Z,3.57
2023-05-18T21:21:17.045Z,3.80
2023-05-18T21:23:43.955Z,3.50
2023-05-18T21:26:10.963Z,3.50
2023-05-18T21:28:38.048Z,3.23
2023-05-18T21:31:04.954Z,3.50
2023-05-18T21:33:32.023Z,3.57
2023-05-18T21:35:59.681Z,3.60
2023-05-18T21:38:26.679Z,3.30
2023-05-18T21:40:56.154Z,3.93
2023-05-18T21:43:23.816Z,3.50
2023-05-18T21:45:50.881Z,3.60
2023-05-18T21:48:17.871Z,3.80
2023-05-18T21:50:44.793Z,3.70
2023-05-18T21:53:11.936Z,3.70
2023-05-18T21:55:38.825Z,3.60
2023-05-18T21:58:05.906Z,3.87
2023-05-18T22:00:34.900Z,4.03
2023-05-18T22:03:01.934Z,3.93
2023-05-18T22:05:28.946Z,3.30
2023-05-18T22:07:56.027Z,4.00
2023-05-18T22:10:22.971Z,3.43
2023-05-18T22:12:49.879Z,3.67
2023-05-18T22:15:17.208Z,3.57
2023-05-18T22:17:46.194Z,3.73
2023-05-18T22:20:13.344Z,3.70
2023-05-18T22:22:42.971Z,3.50
2023-05-18T22:25:10.027Z,3.47
2023-05-18T22:27:38.561Z,3.60
2023-05-18T22:30:09.519Z,3.73
2023-05-18T22:32:36.621Z,3.40
2023-05-18T22:35:03.799Z,4.13
2023-05-18T22:37:31.553Z,3.73
2023-05-18T22:39:58.439Z,3.67
2023-05-18T22:42:25.283Z,3.87
2023-05-18T22:44:52.161Z,4.10
2023-05-18T22:47:21.533Z,4.03
2023-05-18T22:49:49.243Z,3.90
2023-05-18T22:52:17.913Z,3.83
2023-05-18T22:54:44.834Z,4.10
2023-05-18T22:57:11.821Z,3.73
2023-05-18T22:59:38.805Z,4.17
2023-05-18T23:02:06.156Z,3.90
2023-05-18T23:04:34.058Z,3.40
2023-05-18T23:07:01.856Z,3.80
2023-05-18T23:09:30.520Z,4.10
2023-05-18T23:11:59.532Z,4.00
2023-05-18T23:14:31.088Z,3.97
2023-05-18T23:17:00.899Z,4.03
2023-05-18T23:19:27.869Z,4.30
2023-05-18T23:21:55.556Z,4.00
2023-05-18T23:24:22.573Z,4.40
2023-05-18T23:26:50.812Z,4.30
2023-05-18T23:29:18.906Z,4.00
2023-05-18T23:31:46.036Z,4.03
2023-05-18T23:34:13.229Z,3.83
2023-05-18T23:36:42.807Z,4.10
2023-05-18T23:39:10.557Z,3.83
2023-05-18T23:41:39.153Z,4.10
2023-05-18T23:44:07.042Z,4.53
2023-05-18T23:46:34.689Z,3.80
2023-05-18T23:49:01.849Z,3.83
2023-05-18T23:51:32.135Z,4.23
2023-05-18T23:54:00.251Z,4.10
2023-05-18T23:56:27.381Z,3.50
2023-05-18T23:58:54.478Z,3.57
